Portada
METAR-TAF:

METAR-TAF

Aeropuertos :

Aeropuerto Internacional de Shanghái-Pudong

Shanghái-Pudong, China

latitud: 31-07N, longitud: 121-46E, altitud: 4 m

Observación

El informe se hizo hace 18 minutos, a las 04:00 UTC
Viento 4 kt del este-noreste, variando entre norte y este
Temperatura 18°C
Humedad 94%
Presión 1018 hPa
Visibilidad: 3000 m
Nubes dispersas a una altura de 500 ft
Cielo cubierto a una altura de 2000 ft
lluvia ligera, neblina

METAR: ZSPD 220400Z 06002MPS 350V100 3000 -RA BR SCT005 OVC020 18/17 Q1018 NOSIG

Hora: 12:18 (04:18 UTC)

Pronóstico

El informe se hizo hace 7 horas y 1 minutos, a las 21:17 UTC
Pronóstico válido del 22 a las 00 UTC al 22 a las 24 UTC
Viento 8 kt del este
Visibilidad: 6000 m
Cielo nuboso a una altura de 1300 ft
Evolucionando progresivamente
del 22 a las 08 UTC al 22 a las 10 UTC
Viento 8 kt del norte

TAF: ZSPD 212117Z 2200/2224 10004MPS 6000 BKN013 TX21/2206Z TN17/2220Z BECMG 2208/2210 35004MPS

Observaciones y pronósticos meteorológicos de más de 4000 aeropuertos (mensajes METAR y TAF).

Los puntos amarillos y rojos representan las estaciones disponibles.

Ponga el ratón en el punto deseado para ver el nombre de la estación.

Haga clic para ver las observaciones y los pronósticos meteorológicos.

Para cambiar el mapa : haga clic en los botones verdes con una cruz de color negro para hacer un zoom, en el botón verde con un guión para alejar o en las flechas verdes para mapas adyacentes.


METAR-TAF: